Inarajan, Guam
Current Conditions -  °F | °C
As of 6:54 AM on Wednesday 26 Nov 2014 (Local Time) from PGUM Reporting Station
Clear Clear  
Wind Chill: 80°   Ceiling: Unl
Heat Index: 85°   Visibility: 10mi
Dew Point: 74°   Wind: 6mph
Humidity: 81%   Direction: 70°ENE
Pressure: 29.87"   Gusts: NA
Location:  13.28°N, 144.74°E
Report Text: PGUM 252054Z 07005KT 10SM CLR 27/23 A2987 RMK AO2 SLP105 T02670233 53015
Loading
Personal Weather Stations






























Interactive Weather Map New forecast layout! Learn more

10-Day Weather Forecast

Advertisements
Track Severe Weather on mobile